Time;durP1;ratioP1;P1;durP2;ratioP2;P2;SDS_P1;SDS_P2;PMS_P1;PMS_P2;Temp;Humidity;BMP_temperature;BMP_pressure;BME280_temperature;BME280_humidity;BME280_pressure;Samples;Min_cycle;Max_cycle;Signal;HPM_P1;HPM_P2
2022/01/01 00:01:10;;;;;;;;;;;;;;;;;;;;;
2022/01/01 00:04:39;;;;;;;;;;;;;;;;;;;;;
2022/01/01 00:14:53;;;;;;;69.10;58.35;;;;;;;10.40;100.00;101745.63;4856485;29;20029;-88
2022/01/01 00:18:00;;;;;;;;;;;;;;;;;;;;;
2022/01/01 00:21:35;;;;;;;71.50;57.67;;;;;;;10.53;100.00;101785.78;4906673;29;20056;-86
2022/01/01 00:28:45;;;;;;;;;;;;;;;;;;;;;
2022/01/01 00:49:15;;;;;;;64.00;56.03;;;;;;;10.38;100.00;101781.66;4819530;29;20064;-88
2022/01/01 00:52:21;;;;;;;72.50;59.22;;;;;;;10.59;100.00;101810.56;4797414;29;20039;-87
2022/01/01 01:12:44;;;;;;;;;;;;;;;;;;;;;
2022/01/01 01:16:04;;;;;;;108.68;81.80;;;;;;;10.47;100.00;101796.97;4897555;29;20044;-88
2022/01/01 01:22:58;;;;;;;66.28;56.58;;;;;;;10.58;100.00;101820.03;4930245;28;20084;-87
2022/01/01 01:26:47;;;;;;;67.05;56.60;;;;;;;10.59;100.00;101829.41;4934335;28;20043;-86
2022/01/01 01:29:52;;;;;;;;;;;;;;;;;;;;;
2022/01/01 01:43:57;;;;;;;66.20;56.05;;;;;;;10.53;100.00;101838.06;4940286;29;20214;-89
2022/01/01 01:47:00;;;;;;;64.53;55.70;;;;;;;10.31;100.00;101788.56;4849776;29;20131;-89
2022/01/01 01:50:17;;;;;;;64.05;57.00;;;;;;;10.21;100.00;101774.06;4870693;29;20032;-87
2022/01/01 01:53:20;;;;;;;77.97;60.55;;;;;;;10.53;100.00;101838.06;4840207;29;20045;-89
2022/01/01 02:02:25;;;;;;;62.28;55.67;;;;;;;10.55;100.00;101822.63;4884440;29;20046;-89
2022/01/01 02:05:19;;;;;;;;;;;;;;;10.48;100.00;101823.53;4912164;29;20031;-88
2022/01/01 02:08:25;;;;;;;;;;;;;;;;;;;;;
2022/01/01 02:28:31;;;;;;;71.10;56.85;;;;;;;10.20;100.00;101828.94;4942617;28;20107;-88
2022/01/01 02:31:55;;;;;;;66.50;57.05;;;;;;;10.13;100.00;101819.56;4921143;28;20020;-88
2022/01/01 02:38:41;;;;;;;;;;;;;;;;;;;;;
2022/01/01 02:51:19;;;;;;;64.25;57.00;;;;;;;10.11;100.00;101822.16;4888698;29;20064;-86
2022/01/01 03:00:50;;;;;;;66.68;57.22;;;;;;;10.30;100.00;101884.56;4880473;29;20089;-89
2022/01/01 03:03:55;;;;;;;68.05;57.13;;;;;;;10.40;100.00;101875.06;4975718;29;20071;-88
2022/01/01 03:17:06;;;;;;;75.18;59.80;;;;;;;10.17;100.00;101837.53;4895755;29;20041;-89
2022/01/01 03:30:42;;;;;;;;;;;;;;;;;;;;;
2022/01/01 03:36:43;;;;;;;70.05;57.70;;;;;;;10.14;100.00;101876.13;4995107;28;20037;-86
2022/01/01 03:40:03;;;;;;;70.18;57.70;;;;;;;10.08;100.00;101862.47;4984157;28;20066;-86
2022/01/01 03:42:38;;;;;;;72.82;58.92;;;;;;;10.19;100.00;101870.09;4977228;28;20023;-86
2022/01/01 03:48:24;;;;;;;73.05;58.00;;;;;;;10.02;100.00;101845.38;4979571;28;20063;-87
2022/01/01 03:54:18;;;;;;;;;;;;;;;;;;;;;
2022/01/01 04:04:26;;;;;;;;;;;;;;;;;;;;;
2022/01/01 04:07:41;;;;;;;64.35;56.92;;;;;;;10.42;100.00;101904.22;5064990;28;20103;-88
2022/01/01 04:31:52;;;;;;;;;;;;;;;;;;;;;
2022/01/01 04:42:06;;;;;;;75.90;61.15;;;;;;;10.09;100.00;101911.31;4977471;28;20403;-89
2022/01/01 04:48:31;;;;;;;70.43;59.70;;;;;;;10.34;100.00;101937.72;4936524;28;20030;-90
2022/01/01 04:51:38;;;;;;;75.10;60.83;;;;;;;10.29;100.00;101936.00;4922835;29;20039;-87
2022/01/01 04:54:15;;;;;;;83.13;60.35;;;;;;;10.06;100.00;101885.63;4915658;29;20061;-88
2022/01/01 05:01:04;;;;;;;81.13;62.20;;;;;;;10.36;100.00;101939.44;4943113;29;20066;-88
2022/01/01 05:08:09;;;;;;;;;;;;;;;;;;;;;
2022/01/01 05:10:35;;;;;;;77.18;60.55;;;;;;;10.43;100.00;101969.38;4901572;29;20119;-89
2022/01/01 05:13:58;;;;;;;81.40;63.35;;;;;;;10.39;100.00;101975.38;4883681;29;20064;-89
2022/01/01 05:17:14;;;;;;;83.72;64.50;;;;;;;10.37;100.00;101964.25;4862046;29;20025;-88
2022/01/01 05:30:38;;;;;;;87.13;64.13;;;;;;;10.21;100.00;101948.06;4993156;28;20018;-86
2022/01/01 05:33:03;;;;;;;79.38;61.40;;;;;;;10.43;100.00;101984.78;5079404;22;20052;-87
2022/01/01 05:35:29;;;;;;;74.17;61.40;;;;;;;10.31;100.00;101955.72;5038774;28;20051;-86
2022/01/01 05:37:54;;;;;;;76.23;61.27;;;;;;;10.38;100.00;101978.84;5026811;28;20486;-89
2022/01/01 05:40:19;;;;;;;78.97;62.27;;;;;;;10.23;100.00;101978.06;5062753;28;20090;-86
2022/01/01 05:42:45;;;;;;;78.20;62.23;;;;;;;10.42;100.00;101994.25;5046295;28;20027;-85
2022/01/01 05:45:10;;;;;;;78.43;61.20;;;;;;;10.43;100.00;101990.78;5047246;28;20032;-85
2022/01/01 05:47:38;;;;;;;80.93;62.93;;;;;;;10.24;100.00;101979.75;5050268;28;20261;-88
2022/01/01 05:50:04;;;;;;;79.15;61.35;;;;;;;10.44;100.00;101987.34;5053036;28;20052;-86
2022/01/01 05:52:33;;;;;;;85.45;62.38;;;;;;;10.51;100.00;101998.44;5050854;28;20021;-86
2022/01/01 05:54:58;;;;;;;83.55;61.80;;;;;;;10.32;100.00;101983.19;5049711;28;20096;-87
2022/01/01 05:57:23;;;;;;;85.23;61.90;;;;;;;10.47;100.00;101992.47;5061474;28;20024;-85
2022/01/01 05:59:54;;;;;;;79.60;61.33;;;;;;;10.42;100.00;101986.53;5060782;28;20036;-85
2022/01/01 06:02:22;;;;;;;80.50;60.42;;;;;;;10.34;100.00;101976.28;5052704;28;20157;-87
2022/01/01 06:04:48;;;;;;;77.57;62.50;;;;;;;10.48;100.00;102003.63;5044553;28;20024;-87
2022/01/01 06:07:13;;;;;;;79.03;61.53;;;;;;;10.37;100.00;101993.41;5045343;28;20052;-87
2022/01/01 06:09:38;;;;;;;78.40;60.33;;;;;;;10.45;100.00;102006.22;5044877;28;20028;-87
2022/01/01 06:12:04;;;;;;;81.73;62.43;;;;;;;10.36;100.00;102007.16;5045061;28;20557;-86
2022/01/01 06:14:29;;;;;;;77.85;62.85;;;;;;;10.38;100.00;101984.84;5044928;28;20095;-87
2022/01/01 06:16:55;;;;;;;73.43;60.47;;;;;;;10.34;100.00;101983.16;5044726;28;20371;-86
2022/01/01 06:19:20;;;;;;;77.97;60.10;;;;;;;10.44;100.00;102002.78;5055147;28;20037;-86
2022/01/01 06:21:45;;;;;;;73.83;60.03;;;;;;;10.47;100.00;102001.94;5054262;28;20458;-86
2022/01/01 06:24:11;;;;;;;84.43;61.20;;;;;;;10.29;100.00;102003.75;5049586;28;20067;-86
2022/01/01 06:26:36;;;;;;;77.17;60.60;;;;;;;10.29;100.00;102003.75;5047171;28;20024;-88
2022/01/01 06:29:04;;;;;;;73.23;59.97;;;;;;;10.26;100.00;101993.47;5045637;28;20020;-87
2022/01/01 06:31:33;;;;;;;82.55;61.60;;;;;;;10.22;100.00;102001.22;5045511;28;20039;-88
2022/01/01 06:33:58;;;;;;;75.93;60.45;;;;;;;10.33;100.00;102009.75;5049056;28;20025;-86
2022/01/01 06:36:23;;;;;;;80.20;62.33;;;;;;;10.24;100.00;102012.34;5053703;28;20489;-85
2022/01/01 06:38:49;;;;;;;82.87;60.03;;;;;;;10.43;100.00;102036.25;5059047;28;20020;-86
2022/01/01 06:41:16;;;;;;;80.30;60.77;;;;;;;10.30;100.00;102022.59;5059544;28;20047;-88
2022/01/01 06:43:41;;;;;;;77.53;60.33;;;;;;;10.46;100.00;102041.38;5060769;28;20277;-86
2022/01/01 06:46:07;;;;;;;73.60;58.57;;;;;;;10.50;100.00;102037.91;5059202;28;20039;-87
2022/01/01 06:48:33;;;;;;;80.32;60.13;;;;;;;10.34;100.00;102022.59;5073624;28;20082;-85
2022/01/01 06:50:58;;;;;;;70.50;59.35;;;;;;;10.15;100.00;102005.56;5051739;28;20044;-86
2022/01/01 06:53:24;;;;;;;75.67;59.13;;;;;;;10.40;100.00;102043.97;5052358;28;20032;-87
2022/01/01 06:55:49;;;;;;;74.63;60.47;;;;;;;10.40;100.00;102037.09;5050279;28;20075;-87
2022/01/01 06:58:15;;;;;;;77.73;59.53;;;;;;;10.37;100.00;102042.28;5047075;28;20036;-87
2022/01/01 07:00:43;;;;;;;79.10;59.73;;;;;;;10.17;100.00;102037.25;5047168;28;20286;-86
2022/01/01 07:03:08;;;;;;;86.00;60.50;;;;;;;10.11;100.00;102019.28;5045651;28;20390;-86
2022/01/01 07:05:37;;;;;;;69.77;58.83;;;;;;;10.32;100.00;102047.47;5044931;28;20032;-87
2022/01/01 07:08:05;;;;;;;76.20;59.22;;;;;;;10.36;100.00;102037.16;5047690;28;20195;-87
2022/01/01 07:10:33;;;;;;;74.20;59.50;;;;;;;10.16;100.00;102012.38;5062505;28;20021;-86
2022/01/01 07:12:59;;;;;;;78.22;59.05;;;;;;;10.23;100.00;102042.34;5046857;28;20021;-88
2022/01/01 07:15:27;;;;;;;65.77;58.40;;;;;;;10.21;100.00;102015.78;5046561;28;20021;-88
2022/01/01 07:17:52;;;;;;;77.82;59.00;;;;;;;10.29;100.00;102050.03;5046147;28;20517;-87
2022/01/01 07:20:17;;;;;;;77.60;60.17;;;;;;;10.28;100.00;102047.47;5046188;28;20025;-88
2022/01/01 07:22:48;;;;;;;79.37;61.73;;;;;;;10.16;100.00;102035.53;5046383;28;20032;-86
2022/01/01 07:25:15;;;;;;;69.80;58.90;;;;;;;10.38;100.00;102053.44;5047186;28;20037;-87
2022/01/01 07:27:40;;;;;;;;;;;;;;;10.31;100.00;102062.88;5046779;28;20104;-87
2022/01/01 07:30:09;;;;;;;76.47;58.85;;;;;;;10.31;100.00;102055.16;5045907;28;19944;-87
2022/01/01 07:32:41;;;;;;;70.10;58.88;;;;;;;10.18;100.00;102051.81;5047384;28;20028;-87
2022/01/01 07:35:10;;;;;;;78.45;61.10;;;;;;;10.02;100.00;102034.75;5046072;28;20374;-87
2022/01/01 07:37:36;;;;;;;81.78;60.88;;;;;;;10.07;100.00;102051.00;5045429;28;20119;-88
2022/01/01 07:40:06;;;;;;;69.30;58.97;;;;;;;10.13;100.00;102063.81;5045458;28;20033;-87
2022/01/01 07:42:32;;;;;;;82.88;61.80;;;;;;;10.17;100.00;102068.94;5048578;28;20033;-86
2022/01/01 07:44:59;;;;;;;73.87;58.83;;;;;;;10.24;100.00;102072.31;5062226;28;20025;-85
2022/01/01 07:47:24;;;;;;;76.72;60.08;;;;;;;10.23;100.00;102080.06;5055396;28;20021;-86
2022/01/01 07:49:49;;;;;;;76.63;59.63;;;;;;;10.22;100.00;102079.19;5047802;28;20024;-88
2022/01/01 07:52:15;;;;;;;79.97;59.37;;;;;;;10.38;100.00;102076.59;5047137;28;20032;-87
2022/01/01 07:54:40;;;;;;;76.70;59.60;;;;;;;10.25;100.00;102084.34;5047652;28;20461;-88
2022/01/01 07:57:05;;;;;;;73.60;59.23;;;;;;;10.30;100.00;102092.03;5047778;28;20424;-86
2022/01/01 07:59:31;;;;;;;78.13;59.93;;;;;;;10.22;100.00;102071.50;5047396;28;20516;-86
2022/01/01 08:01:56;;;;;;;74.03;59.40;;;;;;;10.36;100.00;102098.91;5046148;28;20031;-89
2022/01/01 08:04:24;;;;;;;80.13;60.27;;;;;;;10.18;100.00;102074.97;5048929;28;20123;-85
2022/01/01 08:06:49;;;;;;;73.03;60.30;;;;;;;10.33;100.00;102089.47;5049172;28;20021;-87
2022/01/01 08:09:16;;;;;;;77.17;59.80;;;;;;;10.28;100.00;102098.91;5052569;28;20211;-87
2022/01/01 08:11:44;;;;;;;74.57;59.55;;;;;;;10.19;100.00;102099.78;5055860;28;20021;-88
2022/01/01 08:14:13;;;;;;;87.00;60.17;;;;;;;10.20;100.00;102110.91;5066753;28;20028;-88
2022/01/01 08:17:06;;;;;;;92.82;62.97;;;;;;;10.11;100.00;102096.41;5057985;28;20084;-88
2022/01/01 08:19:31;;;;;;;84.43;61.33;;;;;;;10.30;100.00;102113.44;5056470;28;20051;-87
2022/01/01 08:21:59;;;;;;;82.57;60.15;;;;;;;10.23;100.00;102119.50;5058275;28;20056;-87
2022/01/01 08:24:25;;;;;;;81.75;60.00;;;;;;;10.16;100.00;102095.53;5072815;28;20051;-87
2022/01/01 08:26:51;;;;;;;78.27;59.77;;;;;;;10.29;100.00;102121.16;5057765;28;20017;-85
2022/01/01 08:29:16;;;;;;;84.57;61.42;;;;;;;10.26;100.00;102116.03;5059926;28;20088;-85
2022/01/01 08:31:42;;;;;;;87.13;62.90;;;;;;;10.13;100.00;102120.38;5063558;28;20224;-85
2022/01/01 08:34:13;;;;;;;85.40;63.07;;;;;;;10.14;100.00;102107.53;5063528;28;20253;-86
2022/01/01 08:36:39;;;;;;;90.00;63.08;;;;;;;10.21;100.00;102118.63;5064263;28;20024;-87
2022/01/01 08:39:08;;;;;;;90.88;63.00;;;;;;;10.23;100.00;102122.06;5062989;28;20025;-88
2022/01/01 08:41:34;;;;;;;92.05;61.75;;;;;;;10.15;100.00;102116.97;5061738;28;20489;-87
2022/01/01 08:43:59;;;;;;;92.10;62.27;;;;;;;10.14;100.00;102110.09;5060894;28;20035;-87
2022/01/01 08:46:25;;;;;;;95.10;63.53;;;;;;;10.23;100.00;102129.78;5054757;28;20032;-86
2022/01/01 08:48:50;;;;;;;85.37;62.63;;;;;;;10.33;100.00;102126.31;5036890;28;20016;-87
2022/01/01 08:51:17;;;;;;;89.83;64.30;;;;;;;10.25;100.00;102135.75;5043880;28;20063;-85
2022/01/01 08:53:43;;;;;;;84.05;61.80;;;;;;;10.42;100.00;102134.84;5059814;28;20075;-86
2022/01/01 08:56:09;;;;;;;86.05;63.25;;;;;;;10.43;100.00;102152.00;5058386;28;20028;-87
2022/01/01 08:58:34;;;;;;;78.90;60.20;;;;;;;10.42;100.00;102147.72;5052850;28;20043;-88
2022/01/01 09:01:01;;;;;;;76.57;62.37;;;;;;;10.42;100.00;102158.00;5052898;28;20032;-87
2022/01/01 09:03:26;;;;;;;;;;;;;;;10.35;100.00;102157.19;5053606;28;20284;-88
2022/01/01 09:05:52;;;;;;;90.35;62.28;;;;;;;10.40;100.00;102144.28;5050358;28;19912;-87
2022/01/01 09:08:17;;;;;;;87.53;63.23;;;;;;;10.37;100.00;102152.03;5055696;28;20020;-86
2022/01/01 09:10:42;;;;;;;90.17;64.00;;;;;;;10.31;100.00;102146.03;5055162;28;20041;-85
2022/01/01 09:13:07;;;;;;;82.43;63.90;;;;;;;10.42;100.00;102158.00;5058818;28;20035;-86
2022/01/01 09:15:33;;;;;;;87.57;63.73;;;;;;;10.40;100.00;102159.72;5056446;28;20020;-87
2022/01/01 09:17:58;;;;;;;99.87;65.63;;;;;;;10.39;100.00;102165.72;5055688;28;20025;-87
2022/01/01 09:20:23;;;;;;;96.83;65.30;;;;;;;10.47;100.00;102166.56;5055983;28;20044;-86
2022/01/01 09:22:49;;;;;;;102.47;67.10;;;;;;;10.31;100.00;102138.31;5054159;28;20033;-87
2022/01/01 09:25:14;;;;;;;101.30;68.00;;;;;;;10.30;100.00;102141.72;5056962;28;20063;-87
2022/01/01 09:27:40;;;;;;;94.47;65.53;;;;;;;10.38;100.00;102149.44;5059474;28;20123;-86
2022/01/01 09:30:06;;;;;;;98.53;66.40;;;;;;;10.38;100.00;102151.19;5059406;28;20025;-86
2022/01/01 09:32:32;;;;;;;93.18;66.03;;;;;;;10.40;100.00;102170.88;5058213;28;20086;-86
2022/01/01 09:35:00;;;;;;;101.40;68.40;;;;;;;10.42;100.00;102174.31;5058505;28;20033;-86
2022/01/01 09:37:26;;;;;;;100.95;68.10;;;;;;;10.49;100.00;102190.56;5058737;28;20013;-86
2022/01/01 09:39:51;;;;;;;113.30;70.13;;;;;;;10.32;100.00;102188.94;5058617;28;20059;-86
2022/01/01 09:42:17;;;;;;;96.03;68.37;;;;;;;10.39;100.00;102183.72;5048030;28;20273;-86
2022/01/01 09:44:42;;;;;;;;;;;;;;;10.55;100.00;102190.53;5048441;28;20079;-85
2022/01/01 09:47:08;;;;;;;101.65;70.07;;;;;;;10.40;100.00;102176.00;5047560;28;20006;-87
2022/01/01 09:49:33;;;;;;;107.63;69.40;;;;;;;10.51;100.00;102193.97;5049590;28;20490;-86
2022/01/01 09:51:59;;;;;;;95.17;68.80;;;;;;;10.42;100.00;102206.88;5065571;28;20033;-86
2022/01/01 09:54:24;;;;;;;100.57;71.63;;;;;;;10.23;100.00;102180.34;5050074;28;20040;-87
2022/01/01 09:56:49;;;;;;;114.33;75.83;;;;;;;10.27;100.00;102194.91;5048464;28;20028;-87
2022/01/01 09:59:15;;;;;;;116.83;74.10;;;;;;;10.37;100.00;102198.31;5049131;28;20402;-87
2022/01/01 10:01:42;;;;;;;117.57;76.50;;;;;;;10.27;100.00;102194.91;5049757;28;20020;-88
2022/01/01 10:04:15;;;;;;;119.38;75.78;;;;;;;10.33;100.00;102188.06;5050464;28;20028;-87
2022/01/01 10:06:41;;;;;;;119.95;76.63;;;;;;;10.39;100.00;102200.03;5060242;28;20090;-85
2022/01/01 10:09:09;;;;;;;117.35;76.72;;;;;;;10.32;100.00;102183.78;5061388;28;20016;-86
2022/01/01 10:11:35;;;;;;;115.57;75.75;;;;;;;10.43;100.00;102206.03;5062342;28;20025;-86
2022/01/01 10:14:06;;;;;;;113.55;76.22;;;;;;;10.40;100.00;102200.88;5061466;28;20028;-87
2022/01/01 10:16:31;;;;;;;122.05;77.25;;;;;;;10.26;100.00;102193.19;5063921;28;20021;-86
2022/01/01 10:18:57;;;;;;;130.03;77.47;;;;;;;10.29;100.00;102193.19;5065262;28;20051;-86
2022/01/01 10:21:27;;;;;;;125.80;81.57;;;;;;;10.44;100.00;102238.59;5060079;28;20063;-87
2022/01/01 10:23:55;;;;;;;122.00;76.72;;;;;;;10.30;100.00;102195.75;5058545;28;20051;-87
2022/01/01 10:29:23;;;;;;;126.93;77.65;;;;;;;10.65;100.00;102243.66;5060722;28;20064;-86
2022/01/01 10:32:12;;;;;;;123.35;78.75;;;;;;;10.65;100.00;102238.50;5059147;28;20048;-87
2022/01/01 10:34:45;;;;;;;126.85;80.32;;;;;;;10.58;100.00;102221.41;5048601;28;20113;-86
2022/01/01 10:37:13;;;;;;;134.43;82.40;;;;;;;10.54;100.00;102240.28;5037496;28;20075;-86
2022/01/01 10:39:52;;;;;;;118.28;79.95;;;;;;;10.49;100.00;102229.16;5044003;28;20016;-87
2022/01/01 10:42:18;;;;;;;127.97;79.82;;;;;;;10.75;100.00;102248.75;5057072;28;20037;-86
2022/01/01 10:44:52;;;;;;;123.80;79.72;;;;;;;10.70;100.00;102253.91;5054708;28;20028;-87
2022/01/01 10:47:31;;;;;;;123.65;79.10;;;;;;;10.64;100.00;102252.25;5055177;28;20020;-88
2022/01/01 10:52:37;;;;;;;;;;;;;;;10.62;100.00;102251.38;5074497;28;20025;-86
2022/01/01 10:55:07;;;;;;;120.32;79.70;;;;;;;10.57;100.00;102250.56;5058143;28;19912;-86
2022/01/01 10:57:35;;;;;;;131.32;81.38;;;;;;;10.42;100.00;102242.88;5058982;28;20011;-87
2022/01/01 11:00:08;;;;;;;122.85;79.90;;;;;;;10.49;100.00;102262.59;5060339;28;20020;-86
2022/01/01 11:02:38;;;;;;;121.97;80.72;;;;;;;10.52;100.00;102242.84;5055591;28;20100;-87
2022/01/01 11:05:06;;;;;;;123.03;78.07;;;;;;;10.46;100.00;102242.03;5070789;28;20029;-86
2022/01/01 11:07:41;;;;;;;124.20;77.72;;;;;;;10.54;100.00;102240.28;5055563;28;20024;-86
2022/01/01 11:10:06;;;;;;;109.00;74.70;;;;;;;10.57;100.00;102240.25;5054349;28;20481;-86
2022/01/01 11:12:32;;;;;;;123.30;78.00;;;;;;;10.34;100.00;102232.66;5053432;28;20071;-86
2022/01/01 11:14:59;;;;;;;112.55;75.28;;;;;;;10.38;100.00;102216.31;5052022;28;20106;-86
2022/01/01 11:17:25;;;;;;;112.07;72.75;;;;;;;10.55;100.00;102233.41;5052979;28;20025;-87
2022/01/01 11:19:51;;;;;;;111.97;72.28;;;;;;;10.60;100.00;102235.09;5051999;28;20223;-87
2022/01/01 11:22:19;;;;;;;100.63;72.00;;;;;;;10.65;100.00;102238.50;5052900;28;20035;-87
2022/01/01 11:24:45;;;;;;;97.60;71.75;;;;;;;10.64;100.00;102215.34;5053474;28;20025;-87
2022/01/01 11:27:10;;;;;;;;;;;;;;;10.83;100.00;102216.97;5053914;28;20028;-86
2022/01/01 11:29:36;;;;;;;101.88;72.75;;;;;;;10.83;100.00;102196.38;5054377;28;19954;-86
2022/01/01 11:32:02;;;;;;;101.60;72.20;;;;;;;10.95;100.00;102203.16;5052373;28;20028;-85
2022/01/01 11:34:30;;;;;;;101.88;72.50;;;;;;;10.93;100.00;102199.75;5077693;23;20096;-82
2022/01/01 11:36:56;;;;;;;90.68;71.63;;;;;;;10.90;100.00;102202.34;5029049;28;20051;-84
2022/01/01 11:39:24;;;;;;;97.77;71.77;;;;;;;10.87;100.00;102205.78;5015460;28;20025;-84
2022/01/01 11:41:49;;;;;;;98.50;69.53;;;;;;;10.93;100.00;102196.28;5027802;28;20281;-83
2022/01/01 11:44:32;;;;;;;101.33;69.53;;;;;;;10.74;100.00;102192.97;5058292;28;20013;-82
2022/01/01 11:47:00;;;;;;;97.65;69.88;;;;;;;10.75;100.00;102199.84;5041686;28;20096;-83
2022/01/01 11:49:27;;;;;;;109.13;71.30;;;;;;;10.67;100.00;102190.47;5026042;28;20036;-82
2022/01/01 11:51:54;;;;;;;100.35;69.72;;;;;;;10.68;100.00;102188.75;5025765;28;20036;-83
2022/01/01 11:54:25;;;;;;;92.88;68.68;;;;;;;10.68;100.00;102175.88;5025300;28;20017;-82
2022/01/01 11:56:50;;;;;;;102.32;69.25;;;;;;;10.69;100.00;102177.59;5025448;28;20040;-84
2022/01/01 11:59:24;;;;;;;95.53;70.17;;;;;;;10.65;100.00;102170.75;5039255;28;20025;-84
2022/01/01 12:01:51;;;;;;;100.95;68.70;;;;;;;10.69;100.00;102175.88;5020686;28;20048;-84
2022/01/01 12:04:35;;;;;;;95.20;68.35;;;;;;;10.68;100.00;102161.28;5019819;28;20017;-84
2022/01/01 12:07:13;;;;;;;94.70;65.90;;;;;;;10.71;100.00;102156.13;5028873;28;20022;-84
2022/01/01 12:09:57;;;;;;;89.82;66.35;;;;;;;10.84;99.85;102158.63;5006326;28;20124;-84
2022/01/01 12:12:42;;;;;;;94.22;68.50;;;;;;;10.74;99.85;102152.69;5030654;28;20039;-85
2022/01/01 12:15:10;;;;;;;94.38;68.22;;;;;;;10.83;100.00;102149.19;5005495;28;20040;-84
2022/01/01 12:17:43;;;;;;;95.78;69.30;;;;;;;10.83;99.99;102149.19;5005857;28;20018;-85
2022/01/01 12:20:26;;;;;;;84.32;65.07;;;;;;;10.75;99.25;102135.50;5024159;28;20013;-84
2022/01/01 12:22:52;;;;;;;93.85;68.50;;;;;;;10.79;99.48;102137.22;5017537;28;20021;-84
2022/01/01 12:25:21;;;;;;;81.55;65.10;;;;;;;10.81;99.64;102140.63;5004480;28;20025;-84
2022/01/01 12:27:50;;;;;;;94.20;67.13;;;;;;;10.81;99.26;102126.00;5010273;28;20033;-84
2022/01/01 12:30:29;;;;;;;98.38;67.75;;;;;;;10.83;99.58;102123.44;5013314;28;20047;-84
2022/01/01 12:32:54;;;;;;;83.35;65.63;;;;;;;10.85;99.21;102127.72;5009265;28;20026;-84
2022/01/01 12:35:37;;;;;;;87.53;67.10;;;;;;;10.90;99.32;102135.41;5003287;28;20104;-85
2022/01/01 12:38:07;;;;;;;87.53;66.07;;;;;;;10.90;99.41;102130.25;5010888;28;20037;-85
2022/01/01 12:40:32;;;;;;;94.72;65.72;;;;;;;10.80;99.57;102123.44;5009287;28;20034;-84
2022/01/01 12:43:08;;;;;;;93.47;67.97;;;;;;;10.92;99.77;102138.81;5009152;28;20041;-86
2022/01/01 12:45:34;;;;;;;92.23;67.47;;;;;;;10.90;98.87;102137.97;5017391;28;20025;-83
2022/01/01 12:48:00;;;;;;;83.03;67.68;;;;;;;10.81;100.00;102130.31;5020400;28;20026;-86
2022/01/01 12:50:25;;;;;;;97.68;68.22;;;;;;;10.97;99.45;102147.34;5015945;28;20404;-86
2022/01/01 12:52:54;;;;;;;97.10;68.73;;;;;;;10.81;100.00;102138.03;5016793;28;20091;-85
2022/01/01 12:55:25;;;;;;;101.47;70.68;;;;;;;10.61;100.00;102104.72;5011337;28;20025;-85
2022/01/01 12:58:08;;;;;;;99.32;71.50;;;;;;;10.70;100.00;102130.38;5011162;28;20101;-85
2022/01/01 13:00:37;;;;;;;100.53;71.18;;;;;;;10.61;100.00;102097.88;5009878;28;20021;-85
2022/01/01 13:03:06;;;;;;;108.95;74.43;;;;;;;10.65;100.00;102127.84;5008988;28;20033;-84
2022/01/01 13:05:33;;;;;;;109.40;72.00;;;;;;;10.55;100.00;102113.34;5012529;28;20025;-84
2022/01/01 13:08:01;;;;;;;;;;;;;;;10.67;100.00;102127.84;5011232;28;20025;-85
2022/01/01 13:10:27;;;;;;;106.03;72.72;;;;;;;10.44;100.00;102092.81;5009495;28;19916;-85
2022/01/01 13:12:53;;;;;;;107.75;73.43;;;;;;;10.52;100.00;102105.66;5008468;28;20125;-85
2022/01/01 13:15:19;;;;;;;114.13;74.95;;;;;;;10.38;100.00;102099.72;4997038;28;20018;-85
2022/01/01 13:17:50;;;;;;;107.67;73.37;;;;;;;10.41;100.00;102100.56;5011910;28;20028;-84
2022/01/01 13:20:16;;;;;;;108.13;73.70;;;;;;;10.61;100.00;102108.16;5012326;28;20028;-85
2022/01/01 13:22:41;;;;;;;118.40;74.75;;;;;;;10.58;100.00;102113.31;5011015;28;20489;-84
2022/01/01 13:25:07;;;;;;;115.53;75.63;;;;;;;10.57;100.00;102111.59;5012169;28;20052;-84
2022/01/01 13:27:34;;;;;;;120.53;77.03;;;;;;;10.60;100.00;102101.28;5013301;28;20055;-85
2022/01/01 13:30:00;;;;;;;112.82;75.68;;;;;;;10.58;100.00;102095.31;5009299;28;20116;-84
2022/01/01 13:32:26;;;;;;;106.57;73.72;;;;;;;10.67;100.00;102099.53;5010517;28;20051;-86
2022/01/01 13:34:54;;;;;;;104.65;72.93;;;;;;;10.74;100.00;102087.47;5012260;28;20037;-85
2022/01/01 13:37:26;;;;;;;116.80;75.80;;;;;;;10.69;100.00;102078.06;5010628;28;20029;-84
2022/01/01 13:39:58;;;;;;;103.00;73.70;;;;;;;10.76;100.00;102085.75;5026004;28;20525;-84
2022/01/01 13:42:23;;;;;;;102.60;73.07;;;;;;;10.76;100.00;102078.03;5023839;28;20021;-85
2022/01/01 13:44:48;;;;;;;114.23;76.37;;;;;;;10.83;100.00;102079.69;5009388;28;20060;-85
2022/01/01 13:47:20;;;;;;;105.33;71.60;;;;;;;10.93;100.00;102085.59;5025526;28;20032;-85
2022/01/01 13:49:48;;;;;;;101.00;72.18;;;;;;;10.79;100.00;102065.13;5009489;28;20025;-85
2022/01/01 13:52:18;;;;;;;108.72;75.15;;;;;;;10.99;100.00;102094.16;5010659;28;20037;-85
2022/01/01 13:54:44;;;;;;;97.25;69.05;;;;;;;10.95;100.00;102087.31;5011686;28;20036;-85
2022/01/01 13:57:09;;;;;;;97.03;70.90;;;;;;;11.06;100.00;102095.78;5014374;28;20107;-85
2022/01/01 13:59:35;;;;;;;98.93;70.77;;;;;;;11.05;100.00;102091.50;5015033;28;20467;-85
2022/01/01 14:02:09;;;;;;;98.80;71.78;;;;;;;11.06;100.00;102094.94;5014261;28;20290;-85
2022/01/01 14:04:36;;;;;;;101.40;70.97;;;;;;;11.06;100.00;102092.38;5013123;28;20033;-84
2022/01/01 14:07:11;;;;;;;105.90;70.10;;;;;;;11.11;100.00;102093.16;5012730;28;20021;-84
2022/01/01 14:09:38;;;;;;;95.22;69.85;;;;;;;11.06;100.00;102089.78;5013488;28;20293;-84
2022/01/01 14:12:04;;;;;;;94.45;68.68;;;;;;;10.90;100.00;102068.47;5013605;28;20031;-84
2022/01/01 14:14:30;;;;;;;99.35;70.65;;;;;;;10.95;100.00;102077.00;5013666;28;20056;-85
2022/01/01 14:16:57;;;;;;;89.97;67.75;;;;;;;11.08;100.00;102099.19;5014456;28;20055;-84
2022/01/01 14:19:23;;;;;;;90.82;67.65;;;;;;;10.92;100.00;102074.44;5013141;28;20106;-85
2022/01/01 14:21:51;;;;;;;88.93;68.30;;;;;;;10.95;100.00;102082.16;5015334;28;20306;-85
2022/01/01 14:24:21;;;;;;;99.45;71.63;;;;;;;11.14;100.00;102100.03;5026677;28;20045;-84
2022/01/01 14:26:49;;;;;;;90.20;68.22;;;;;;;11.01;100.00;102084.69;5040521;28;20027;-84
2022/01/01 14:29:16;;;;;;;85.80;69.75;;;;;;;11.06;100.00;102090.63;5027756;28;20017;-84
2022/01/01 14:31:42;;;;;;;95.28;67.68;;;;;;;11.06;100.00;102090.63;5018941;28;20029;-85
2022/01/01 14:34:13;;;;;;;102.25;69.28;;;;;;;11.15;100.00;102094.88;5049250;28;20025;-86
2022/01/01 14:36:40;;;;;;;96.05;69.00;;;;;;;10.99;100.00;102076.13;5011585;28;20029;-85
2022/01/01 14:39:06;;;;;;;86.82;67.93;;;;;;;10.87;100.00;102058.19;4995101;28;20022;-84
2022/01/01 14:41:31;;;;;;;84.60;67.07;;;;;;;11.19;100.00;102113.72;5033271;28;20029;-85
2022/01/01 14:43:57;;;;;;;93.03;68.03;;;;;;;11.11;100.00;102098.31;5018506;28;20021;-85
2022/01/01 14:46:26;;;;;;;86.43;65.18;;;;;;;11.23;100.00;102115.38;5016582;28;20033;-85
2022/01/01 14:49:00;;;;;;;83.80;67.60;;;;;;;11.21;100.00;102104.22;5018587;28;20025;-84
2022/01/01 14:51:31;;;;;;;92.72;68.53;;;;;;;11.24;100.00;102099.06;5039414;28;20026;-84
2022/01/01 14:54:03;;;;;;;87.00;69.00;;;;;;;11.24;100.00;102099.91;5043048;28;20029;-83
2022/01/01 14:56:51;;;;;;;85.95;66.38;;;;;;;11.27;100.00;102093.88;5043594;28;20010;-82
2022/01/01 14:59:32;;;;;;;88.60;68.20;;;;;;;11.27;100.00;102088.72;5026428;28;20076;-82
2022/01/01 15:02:01;;;;;;;91.13;67.95;;;;;;;11.26;100.00;102087.00;5029196;28;20033;-84
2022/01/01 15:04:27;;;;;;;90.28;67.78;;;;;;;11.16;100.00;102057.06;5038651;28;20025;-83
2022/01/01 15:06:53;;;;;;;97.82;66.93;;;;;;;11.24;100.00;102073.31;5023804;28;20029;-83